sensor_id;sensor_type;location;lat;lon;timestamp;P1;durP1;ratioP1;P2;durP2;ratioP2
53650;SDS011;39552;45.776;15.892;2022-07-29T00:02:14;8.75;;;5.22;;
53650;SDS011;39552;45.776;15.892;2022-07-29T00:04:41;11.47;;;5.13;;
53650;SDS011;39552;45.776;15.892;2022-07-29T00:07:08;11.23;;;5.72;;
53650;SDS011;39552;45.776;15.892;2022-07-29T00:09:36;8.18;;;5.60;;
53650;SDS011;39552;45.776;15.892;2022-07-29T00:12:17;9.30;;;5.45;;
53650;SDS011;39552;45.776;15.892;2022-07-29T00:14:52;6.82;;;4.72;;
53650;SDS011;39552;45.776;15.892;2022-07-29T00:17:21;12.85;;;5.68;;
53650;SDS011;39552;45.776;15.892;2022-07-29T00:19:48;10.10;;;5.33;;
53650;SDS011;39552;45.776;15.892;2022-07-29T00:22:14;10.45;;;5.13;;
53650;SDS011;39552;45.776;15.892;2022-07-29T00:24:41;9.23;;;5.78;;
53650;SDS011;39552;45.776;15.892;2022-07-29T00:27:08;8.48;;;5.63;;
53650;SDS011;39552;45.776;15.892;2022-07-29T00:29:34;8.88;;;5.40;;
53650;SDS011;39552;45.776;15.892;2022-07-29T00:32:01;10.23;;;5.40;;
53650;SDS011;39552;45.776;15.892;2022-07-29T00:34:29;11.38;;;6.15;;
53650;SDS011;39552;45.776;15.892;2022-07-29T00:36:56;10.25;;;5.43;;
53650;SDS011;39552;45.776;15.892;2022-07-29T00:39:23;10.93;;;5.47;;
53650;SDS011;39552;45.776;15.892;2022-07-29T00:41:52;7.47;;;5.40;;
53650;SDS011;39552;45.776;15.892;2022-07-29T00:44:19;11.02;;;5.78;;
53650;SDS011;39552;45.776;15.892;2022-07-29T00:46:46;7.88;;;5.13;;
53650;SDS011;39552;45.776;15.892;2022-07-29T00:49:13;11.15;;;5.50;;
53650;SDS011;39552;45.776;15.892;2022-07-29T00:51:41;8.25;;;5.57;;
53650;SDS011;39552;45.776;15.892;2022-07-29T00:54:08;12.43;;;6.00;;
53650;SDS011;39552;45.776;15.892;2022-07-29T00:56:34;8.13;;;5.78;;
53650;SDS011;39552;45.776;15.892;2022-07-29T00:59:02;7.82;;;6.05;;
53650;SDS011;39552;45.776;15.892;2022-07-29T01:01:29;11.43;;;6.65;;
53650;SDS011;39552;45.776;15.892;2022-07-29T01:03:55;9.98;;;5.75;;
53650;SDS011;39552;45.776;15.892;2022-07-29T01:06:22;9.25;;;5.97;;
53650;SDS011;39552;45.776;15.892;2022-07-29T01:08:52;5.80;;;5.27;;
53650;SDS011;39552;45.776;15.892;2022-07-29T01:11:19;8.88;;;6.03;;
53650;SDS011;39552;45.776;15.892;2022-07-29T01:13:46;9.38;;;5.78;;
53650;SDS011;39552;45.776;15.892;2022-07-29T01:16:15;11.85;;;5.80;;
53650;SDS011;39552;45.776;15.892;2022-07-29T01:18:47;8.70;;;5.43;;
53650;SDS011;39552;45.776;15.892;2022-07-29T01:21:31;7.68;;;4.82;;
53650;SDS011;39552;45.776;15.892;2022-07-29T01:24:18;6.72;;;4.97;;
53650;SDS011;39552;45.776;15.892;2022-07-29T01:26:57;12.75;;;5.18;;
53650;SDS011;39552;45.776;15.892;2022-07-29T01:29:30;9.00;;;4.90;;
53650;SDS011;39552;45.776;15.892;2022-07-29T01:32:06;13.52;;;5.78;;
53650;SDS011;39552;45.776;15.892;2022-07-29T01:34:55;12.80;;;5.32;;
53650;SDS011;39552;45.776;15.892;2022-07-29T01:37:29;7.97;;;4.93;;
53650;SDS011;39552;45.776;15.892;2022-07-29T01:40:04;14.80;;;5.35;;
53650;SDS011;39552;45.776;15.892;2022-07-29T01:42:35;9.10;;;5.18;;
53650;SDS011;39552;45.776;15.892;2022-07-29T01:45:08;7.10;;;5.32;;
53650;SDS011;39552;45.776;15.892;2022-07-29T01:47:41;9.55;;;5.63;;
53650;SDS011;39552;45.776;15.892;2022-07-29T01:50:14;9.45;;;5.53;;
53650;SDS011;39552;45.776;15.892;2022-07-29T01:52:45;8.57;;;5.47;;
53650;SDS011;39552;45.776;15.892;2022-07-29T01:55:24;7.18;;;5.72;;
53650;SDS011;39552;45.776;15.892;2022-07-29T01:57:54;9.20;;;5.65;;
53650;SDS011;39552;45.776;15.892;2022-07-29T02:00:26;10.07;;;6.30;;
53650;SDS011;39552;45.776;15.892;2022-07-29T02:02:55;10.57;;;5.60;;
53650;SDS011;39552;45.776;15.892;2022-07-29T02:05:24;11.88;;;6.60;;
53650;SDS011;39552;45.776;15.892;2022-07-29T02:07:55;8.10;;;5.40;;
53650;SDS011;39552;45.776;15.892;2022-07-29T02:10:25;6.43;;;5.82;;
53650;SDS011;39552;45.776;15.892;2022-07-29T02:12:55;7.82;;;5.55;;
53650;SDS011;39552;45.776;15.892;2022-07-29T02:15:23;9.18;;;5.95;;
53650;SDS011;39552;45.776;15.892;2022-07-29T02:17:54;8.65;;;5.82;;
53650;SDS011;39552;45.776;15.892;2022-07-29T02:20:25;10.35;;;5.75;;
53650;SDS011;39552;45.776;15.892;2022-07-29T02:22:53;7.88;;;5.97;;
53650;SDS011;39552;45.776;15.892;2022-07-29T02:25:21;10.15;;;5.93;;
53650;SDS011;39552;45.776;15.892;2022-07-29T02:28:02;12.88;;;5.40;;
53650;SDS011;39552;45.776;15.892;2022-07-29T02:30:32;5.82;;;5.18;;
53650;SDS011;39552;45.776;15.892;2022-07-29T02:33:02;9.48;;;5.53;;
53650;SDS011;39552;45.776;15.892;2022-07-29T02:35:30;11.50;;;5.70;;
53650;SDS011;39552;45.776;15.892;2022-07-29T02:38:00;10.82;;;6.10;;
53650;SDS011;39552;45.776;15.892;2022-07-29T02:40:29;12.65;;;5.65;;
53650;SDS011;39552;45.776;15.892;2022-07-29T02:42:55;8.18;;;5.82;;
53650;SDS011;39552;45.776;15.892;2022-07-29T02:45:22;11.43;;;6.32;;
53650;SDS011;39552;45.776;15.892;2022-07-29T02:47:50;11.23;;;5.75;;
53650;SDS011;39552;45.776;15.892;2022-07-29T02:50:21;9.45;;;5.78;;
53650;SDS011;39552;45.776;15.892;2022-07-29T02:52:57;13.25;;;6.38;;
53650;SDS011;39552;45.776;15.892;2022-07-29T02:55:29;8.20;;;6.20;;
53650;SDS011;39552;45.776;15.892;2022-07-29T02:57:59;9.98;;;6.00;;
53650;SDS011;39552;45.776;15.892;2022-07-29T03:02:58;9.10;;;6.20;;
53650;SDS011;39552;45.776;15.892;2022-07-29T03:05:27;9.95;;;6.00;;
53650;SDS011;39552;45.776;15.892;2022-07-29T03:07:55;8.98;;;5.50;;
53650;SDS011;39552;45.776;15.892;2022-07-29T03:12:51;11.45;;;6.45;;
53650;SDS011;39552;45.776;15.892;2022-07-29T03:15:18;12.82;;;6.05;;
53650;SDS011;39552;45.776;15.892;2022-07-29T03:20:16;10.40;;;6.28;;
53650;SDS011;39552;45.776;15.892;2022-07-29T03:22:44;12.43;;;6.15;;
53650;SDS011;39552;45.776;15.892;2022-07-29T03:25:11;9.48;;;6.00;;
53650;SDS011;39552;45.776;15.892;2022-07-29T03:27:39;9.93;;;6.32;;
53650;SDS011;39552;45.776;15.892;2022-07-29T03:30:06;9.65;;;6.32;;
53650;SDS011;39552;45.776;15.892;2022-07-29T03:32:34;11.65;;;6.30;;
53650;SDS011;39552;45.776;15.892;2022-07-29T03:35:01;14.18;;;6.03;;
53650;SDS011;39552;45.776;15.892;2022-07-29T03:37:29;8.98;;;5.88;;
53650;SDS011;39552;45.776;15.892;2022-07-29T03:39:56;5.80;;;5.20;;
53650;SDS011;39552;45.776;15.892;2022-07-29T03:42:24;7.53;;;6.25;;
53650;SDS011;39552;45.776;15.892;2022-07-29T03:44:59;12.02;;;5.78;;
53650;SDS011;39552;45.776;15.892;2022-07-29T03:47:29;9.40;;;6.18;;
53650;SDS011;39552;45.776;15.892;2022-07-29T03:50:15;7.95;;;6.22;;
53650;SDS011;39552;45.776;15.892;2022-07-29T03:52:46;6.95;;;5.95;;
53650;SDS011;39552;45.776;15.892;2022-07-29T03:55:14;9.13;;;5.75;;
53650;SDS011;39552;45.776;15.892;2022-07-29T03:57:41;9.05;;;5.72;;
53650;SDS011;39552;45.776;15.892;2022-07-29T04:00:09;8.82;;;5.68;;
53650;SDS011;39552;45.776;15.892;2022-07-29T04:02:36;8.43;;;5.22;;
53650;SDS011;39552;45.776;15.892;2022-07-29T04:05:04;10.98;;;5.82;;
53650;SDS011;39552;45.776;15.892;2022-07-29T04:07:37;9.60;;;5.95;;
53650;SDS011;39552;45.776;15.892;2022-07-29T04:10:06;6.13;;;5.53;;
53650;SDS011;39552;45.776;15.892;2022-07-29T04:14:59;12.82;;;5.28;;
53650;SDS011;39552;45.776;15.892;2022-07-29T04:17:26;9.43;;;5.82;;
53650;SDS011;39552;45.776;15.892;2022-07-29T04:19:53;11.23;;;5.43;;
53650;SDS011;39552;45.776;15.892;2022-07-29T04:22:19;7.32;;;5.88;;
53650;SDS011;39552;45.776;15.892;2022-07-29T04:24:48;9.00;;;5.70;;
53650;SDS011;39552;45.776;15.892;2022-07-29T04:27:16;8.82;;;5.95;;
53650;SDS011;39552;45.776;15.892;2022-07-29T04:29:42;10.68;;;5.45;;
53650;SDS011;39552;45.776;15.892;2022-07-29T04:32:22;9.45;;;5.88;;
53650;SDS011;39552;45.776;15.892;2022-07-29T04:34:49;14.20;;;5.93;;
53650;SDS011;39552;45.776;15.892;2022-07-29T04:37:16;12.90;;;5.72;;
53650;SDS011;39552;45.776;15.892;2022-07-29T04:39:42;15.38;;;5.78;;
53650;SDS011;39552;45.776;15.892;2022-07-29T04:42:09;13.63;;;5.82;;
53650;SDS011;39552;45.776;15.892;2022-07-29T04:44:37;10.40;;;5.78;;
53650;SDS011;39552;45.776;15.892;2022-07-29T04:47:08;6.80;;;5.72;;
53650;SDS011;39552;45.776;15.892;2022-07-29T04:49:36;7.45;;;5.78;;
53650;SDS011;39552;45.776;15.892;2022-07-29T04:54:30;6.75;;;5.45;;
53650;SDS011;39552;45.776;15.892;2022-07-29T04:56:57;12.50;;;6.35;;
53650;SDS011;39552;45.776;15.892;2022-07-29T04:59:24;14.80;;;6.30;;
53650;SDS011;39552;45.776;15.892;2022-07-29T05:01:52;10.70;;;5.47;;
53650;SDS011;39552;45.776;15.892;2022-07-29T05:04:19;15.20;;;6.15;;
53650;SDS011;39552;45.776;15.892;2022-07-29T05:06:46;10.85;;;5.95;;
53650;SDS011;39552;45.776;15.892;2022-07-29T05:09:13;11.85;;;6.20;;
53650;SDS011;39552;45.776;15.892;2022-07-29T05:11:39;9.55;;;5.65;;
53650;SDS011;39552;45.776;15.892;2022-07-29T05:14:06;7.03;;;5.18;;
53650;SDS011;39552;45.776;15.892;2022-07-29T05:16:33;7.88;;;5.32;;
53650;SDS011;39552;45.776;15.892;2022-07-29T05:19:01;7.90;;;5.38;;
53650;SDS011;39552;45.776;15.892;2022-07-29T05:21:27;7.60;;;4.95;;
53650;SDS011;39552;45.776;15.892;2022-07-29T05:23:54;11.65;;;5.38;;
53650;SDS011;39552;45.776;15.892;2022-07-29T05:26:21;12.65;;;6.13;;
53650;SDS011;39552;45.776;15.892;2022-07-29T05:28:47;8.77;;;4.78;;
53650;SDS011;39552;45.776;15.892;2022-07-29T05:31:14;8.23;;;5.43;;
53650;SDS011;39552;45.776;15.892;2022-07-29T05:33:41;5.68;;;5.10;;
53650;SDS011;39552;45.776;15.892;2022-07-29T05:36:09;9.18;;;5.20;;
53650;SDS011;39552;45.776;15.892;2022-07-29T05:38:35;9.00;;;5.40;;
53650;SDS011;39552;45.776;15.892;2022-07-29T05:41:03;16.65;;;5.47;;
53650;SDS011;39552;45.776;15.892;2022-07-29T05:43:29;7.88;;;5.18;;
53650;SDS011;39552;45.776;15.892;2022-07-29T05:45:56;8.23;;;5.13;;
53650;SDS011;39552;45.776;15.892;2022-07-29T05:48:23;5.35;;;4.82;;
53650;SDS011;39552;45.776;15.892;2022-07-29T05:50:49;7.57;;;5.30;;
53650;SDS011;39552;45.776;15.892;2022-07-29T05:53:18;10.32;;;5.60;;
53650;SDS011;39552;45.776;15.892;2022-07-29T05:55:46;7.90;;;5.13;;
53650;SDS011;39552;45.776;15.892;2022-07-29T05:58:13;8.57;;;5.43;;
53650;SDS011;39552;45.776;15.892;2022-07-29T06:00:39;10.38;;;5.40;;
53650;SDS011;39552;45.776;15.892;2022-07-29T06:03:06;8.38;;;5.53;;
53650;SDS011;39552;45.776;15.892;2022-07-29T06:05:33;8.73;;;5.45;;
53650;SDS011;39552;45.776;15.892;2022-07-29T06:07:59;10.48;;;5.82;;
53650;SDS011;39552;45.776;15.892;2022-07-29T06:10:27;7.10;;;5.13;;
53650;SDS011;39552;45.776;15.892;2022-07-29T06:12:54;8.48;;;4.88;;
53650;SDS011;39552;45.776;15.892;2022-07-29T06:15:21;7.40;;;4.55;;
53650;SDS011;39552;45.776;15.892;2022-07-29T06:17:48;7.55;;;5.47;;
53650;SDS011;39552;45.776;15.892;2022-07-29T06:20:26;16.27;;;5.63;;
53650;SDS011;39552;45.776;15.892;2022-07-29T06:22:52;6.35;;;5.25;;
53650;SDS011;39552;45.776;15.892;2022-07-29T06:25:19;5.53;;;4.82;;
53650;SDS011;39552;45.776;15.892;2022-07-29T06:27:47;12.23;;;5.00;;
53650;SDS011;39552;45.776;15.892;2022-07-29T06:30:14;9.70;;;4.80;;
53650;SDS011;39552;45.776;15.892;2022-07-29T06:32:40;8.93;;;4.82;;
53650;SDS011;39552;45.776;15.892;2022-07-29T06:35:09;11.05;;;5.43;;
53650;SDS011;39552;45.776;15.892;2022-07-29T06:37:55;6.22;;;4.95;;
53650;SDS011;39552;45.776;15.892;2022-07-29T06:40:25;5.82;;;5.05;;
53650;SDS011;39552;45.776;15.892;2022-07-29T06:42:53;9.18;;;4.55;;
53650;SDS011;39552;45.776;15.892;2022-07-29T06:45:19;8.65;;;4.70;;
53650;SDS011;39552;45.776;15.892;2022-07-29T06:47:46;7.30;;;4.30;;
53650;SDS011;39552;45.776;15.892;2022-07-29T06:50:13;4.63;;;3.90;;
53650;SDS011;39552;45.776;15.892;2022-07-29T06:52:39;10.63;;;4.20;;
53650;SDS011;39552;45.776;15.892;2022-07-29T06:55:06;6.68;;;4.65;;
53650;SDS011;39552;45.776;15.892;2022-07-29T06:57:34;14.52;;;4.57;;
53650;SDS011;39552;45.776;15.892;2022-07-29T07:00:02;5.75;;;3.95;;
53650;SDS011;39552;45.776;15.892;2022-07-29T07:02:30;9.50;;;4.10;;
53650;SDS011;39552;45.776;15.892;2022-07-29T07:04:57;5.20;;;4.10;;
53650;SDS011;39552;45.776;15.892;2022-07-29T07:07:23;5.65;;;4.10;;
53650;SDS011;39552;45.776;15.892;2022-07-29T07:09:50;6.10;;;4.20;;
53650;SDS011;39552;45.776;15.892;2022-07-29T07:12:17;5.75;;;4.55;;
53650;SDS011;39552;45.776;15.892;2022-07-29T07:14:43;14.98;;;4.78;;
53650;SDS011;39552;45.776;15.892;2022-07-29T07:17:11;9.07;;;4.10;;
53650;SDS011;39552;45.776;15.892;2022-07-29T07:19:38;5.85;;;4.28;;
53650;SDS011;39552;45.776;15.892;2022-07-29T07:22:04;6.28;;;4.88;;
53650;SDS011;39552;45.776;15.892;2022-07-29T07:24:33;16.58;;;4.07;;
53650;SDS011;39552;45.776;15.892;2022-07-29T07:27:12;7.18;;;3.88;;
53650;SDS011;39552;45.776;15.892;2022-07-29T07:29:39;8.50;;;4.10;;
53650;SDS011;39552;45.776;15.892;2022-07-29T07:32:09;9.23;;;4.32;;
53650;SDS011;39552;45.776;15.892;2022-07-29T07:34:37;6.43;;;3.83;;
53650;SDS011;39552;45.776;15.892;2022-07-29T07:37:09;6.75;;;4.25;;
53650;SDS011;39552;45.776;15.892;2022-07-29T07:39:35;5.80;;;4.05;;
53650;SDS011;39552;45.776;15.892;2022-07-29T07:42:02;8.38;;;4.10;;
53650;SDS011;39552;45.776;15.892;2022-07-29T07:44:29;11.20;;;3.85;;
53650;SDS011;39552;45.776;15.892;2022-07-29T07:46:56;10.00;;;3.80;;
53650;SDS011;39552;45.776;15.892;2022-07-29T07:49:29;10.60;;;4.68;;
53650;SDS011;39552;45.776;15.892;2022-07-29T07:51:57;10.90;;;3.95;;
53650;SDS011;39552;45.776;15.892;2022-07-29T07:54:24;7.95;;;3.80;;
53650;SDS011;39552;45.776;15.892;2022-07-29T07:56:54;6.10;;;3.47;;
53650;SDS011;39552;45.776;15.892;2022-07-29T07:59:25;13.35;;;4.18;;
53650;SDS011;39552;45.776;15.892;2022-07-29T08:01:51;8.77;;;3.90;;
53650;SDS011;39552;45.776;15.892;2022-07-29T08:04:21;11.98;;;3.90;;
53650;SDS011;39552;45.776;15.892;2022-07-29T08:06:54;17.77;;;3.97;;
53650;SDS011;39552;45.776;15.892;2022-07-29T08:09:22;13.40;;;4.53;;
53650;SDS011;39552;45.776;15.892;2022-07-29T08:11:55;12.43;;;4.30;;
53650;SDS011;39552;45.776;15.892;2022-07-29T08:14:23;13.95;;;4.00;;
53650;SDS011;39552;45.776;15.892;2022-07-29T08:16:50;8.70;;;4.30;;
53650;SDS011;39552;45.776;15.892;2022-07-29T08:19:17;7.32;;;3.70;;
53650;SDS011;39552;45.776;15.892;2022-07-29T08:22:03;9.75;;;3.85;;
53650;SDS011;39552;45.776;15.892;2022-07-29T08:24:43;12.65;;;4.25;;
53650;SDS011;39552;45.776;15.892;2022-07-29T08:27:10;6.40;;;4.13;;
53650;SDS011;39552;45.776;15.892;2022-07-29T08:29:58;3.47;;;2.97;;
53650;SDS011;39552;45.776;15.892;2022-07-29T08:32:27;6.60;;;3.50;;
53650;SDS011;39552;45.776;15.892;2022-07-29T08:37:43;6.22;;;3.30;;
53650;SDS011;39552;45.776;15.892;2022-07-29T08:40:11;6.82;;;3.35;;
53650;SDS011;39552;45.776;15.892;2022-07-29T08:42:38;10.90;;;4.43;;
53650;SDS011;39552;45.776;15.892;2022-07-29T08:45:06;6.85;;;3.67;;
53650;SDS011;39552;45.776;15.892;2022-07-29T08:47:33;8.27;;;3.80;;
53650;SDS011;39552;45.776;15.892;2022-07-29T08:50:00;5.68;;;3.67;;
53650;SDS011;39552;45.776;15.892;2022-07-29T08:55:20;6.40;;;3.60;;
53650;SDS011;39552;45.776;15.892;2022-07-29T08:58:11;9.35;;;3.90;;
53650;SDS011;39552;45.776;15.892;2022-07-29T09:00:42;4.75;;;3.08;;
53650;SDS011;39552;45.776;15.892;2022-07-29T09:03:11;9.23;;;3.67;;
53650;SDS011;39552;45.776;15.892;2022-07-29T09:05:43;6.55;;;3.83;;
53650;SDS011;39552;45.776;15.892;2022-07-29T09:08:13;9.38;;;3.70;;
53650;SDS011;39552;45.776;15.892;2022-07-29T09:10:42;8.02;;;4.28;;
53650;SDS011;39552;45.776;15.892;2022-07-29T09:13:10;6.35;;;3.83;;
53650;SDS011;39552;45.776;15.892;2022-07-29T09:15:36;9.15;;;3.70;;
53650;SDS011;39552;45.776;15.892;2022-07-29T09:18:03;12.40;;;3.72;;
53650;SDS011;39552;45.776;15.892;2022-07-29T09:20:34;3.90;;;3.40;;
53650;SDS011;39552;45.776;15.892;2022-07-29T09:23:07;9.15;;;3.60;;
53650;SDS011;39552;45.776;15.892;2022-07-29T09:25:34;5.38;;;3.60;;
53650;SDS011;39552;45.776;15.892;2022-07-29T09:28:10;8.77;;;4.00;;
53650;SDS011;39552;45.776;15.892;2022-07-29T09:30:39;8.98;;;3.90;;
53650;SDS011;39552;45.776;15.892;2022-07-29T09:33:16;9.02;;;3.80;;
53650;SDS011;39552;45.776;15.892;2022-07-29T09:35:43;7.97;;;3.50;;
53650;SDS011;39552;45.776;15.892;2022-07-29T09:38:22;9.82;;;3.45;;
53650;SDS011;39552;45.776;15.892;2022-07-29T09:40:55;3.60;;;3.25;;
53650;SDS011;39552;45.776;15.892;2022-07-29T09:43:27;12.40;;;3.63;;
53650;SDS011;39552;45.776;15.892;2022-07-29T09:45:54;8.23;;;3.37;;
53650;SDS011;39552;45.776;15.892;2022-07-29T09:48:21;7.35;;;3.45;;
53650;SDS011;39552;45.776;15.892;2022-07-29T09:50:49;3.28;;;3.08;;
53650;SDS011;39552;45.776;15.892;2022-07-29T09:53:30;4.60;;;3.22;;
53650;SDS011;39552;45.776;15.892;2022-07-29T09:55:57;3.33;;;2.88;;
53650;SDS011;39552;45.776;15.892;2022-07-29T09:58:24;8.40;;;3.20;;
53650;SDS011;39552;45.776;15.892;2022-07-29T10:00:53;7.65;;;3.40;;
53650;SDS011;39552;45.776;15.892;2022-07-29T10:03:21;5.43;;;2.83;;
53650;SDS011;39552;45.776;15.892;2022-07-29T10:06:03;4.22;;;3.03;;
53650;SDS011;39552;45.776;15.892;2022-07-29T10:08:31;9.10;;;3.60;;
53650;SDS011;39552;45.776;15.892;2022-07-29T10:11:08;6.60;;;3.30;;
53650;SDS011;39552;45.776;15.892;2022-07-29T10:13:35;8.65;;;3.33;;
53650;SDS011;39552;45.776;15.892;2022-07-29T10:16:04;9.00;;;3.58;;
53650;SDS011;39552;45.776;15.892;2022-07-29T10:18:31;4.13;;;3.20;;
53650;SDS011;39552;45.776;15.892;2022-07-29T10:20:58;8.10;;;3.38;;
53650;SDS011;39552;45.776;15.892;2022-07-29T10:23:26;8.98;;;3.08;;
53650;SDS011;39552;45.776;15.892;2022-07-29T10:25:53;17.75;;;3.10;;
53650;SDS011;39552;45.776;15.892;2022-07-29T10:28:20;10.07;;;3.88;;
53650;SDS011;39552;45.776;15.892;2022-07-29T10:30:47;5.80;;;3.30;;
53650;SDS011;39552;45.776;15.892;2022-07-29T10:33:28;8.70;;;3.10;;
53650;SDS011;39552;45.776;15.892;2022-07-29T10:36:11;7.93;;;3.13;;
53650;SDS011;39552;45.776;15.892;2022-07-29T10:39:05;9.48;;;3.25;;
53650;SDS011;39552;45.776;15.892;2022-07-29T10:41:53;8.80;;;3.17;;
53650;SDS011;39552;45.776;15.892;2022-07-29T10:44:28;5.15;;;3.00;;
53650;SDS011;39552;45.776;15.892;2022-07-29T10:46:57;10.10;;;3.33;;
53650;SDS011;39552;45.776;15.892;2022-07-29T10:49:26;4.40;;;3.30;;
53650;SDS011;39552;45.776;15.892;2022-07-29T10:51:57;3.55;;;3.25;;
53650;SDS011;39552;45.776;15.892;2022-07-29T10:54:44;6.72;;;3.45;;
53650;SDS011;39552;45.776;15.892;2022-07-29T10:57:14;7.97;;;3.53;;
53650;SDS011;39552;45.776;15.892;2022-07-29T11:05:11;6.82;;;4.13;;
53650;SDS011;39552;45.776;15.892;2022-07-29T11:08:16;14.93;;;3.63;;
53650;SDS011;39552;45.776;15.892;2022-07-29T11:14:00;6.75;;;2.97;;
53650;SDS011;39552;45.776;15.892;2022-07-29T11:19:25;10.40;;;3.13;;
53650;SDS011;39552;45.776;15.892;2022-07-29T11:21:57;6.28;;;2.85;;
53650;SDS011;39552;45.776;15.892;2022-07-29T11:24:27;9.32;;;3.47;;
53650;SDS011;39552;45.776;15.892;2022-07-29T11:27:06;9.02;;;3.17;;
53650;SDS011;39552;45.776;15.892;2022-07-29T11:29:51;9.30;;;3.92;;
53650;SDS011;39552;45.776;15.892;2022-07-29T11:32:19;7.70;;;3.55;;
53650;SDS011;39552;45.776;15.892;2022-07-29T11:34:48;6.85;;;3.35;;
53650;SDS011;39552;45.776;15.892;2022-07-29T11:43:46;5.47;;;3.35;;
53650;SDS011;39552;45.776;15.892;2022-07-29T11:46:16;3.80;;;3.40;;
53650;SDS011;39552;45.776;15.892;2022-07-29T11:48:50;4.70;;;3.50;;
53650;SDS011;39552;45.776;15.892;2022-07-29T11:51:18;9.00;;;3.53;;
53650;SDS011;39552;45.776;15.892;2022-07-29T11:53:59;4.35;;;3.15;;
53650;SDS011;39552;45.776;15.892;2022-07-29T11:56:30;4.00;;;3.10;;
53650;SDS011;39552;45.776;15.892;2022-07-29T11:59:03;5.47;;;3.60;;
53650;SDS011;39552;45.776;15.892;2022-07-29T12:01:33;6.63;;;3.10;;
53650;SDS011;39552;45.776;15.892;2022-07-29T12:04:03;8.88;;;3.75;;
53650;SDS011;39552;45.776;15.892;2022-07-29T12:06:32;6.30;;;3.38;;
53650;SDS011;39552;45.776;15.892;2022-07-29T12:09:03;5.18;;;3.30;;
53650;SDS011;39552;45.776;15.892;2022-07-29T12:11:39;6.55;;;3.42;;
53650;SDS011;39552;45.776;15.892;2022-07-29T12:14:23;7.50;;;3.17;;
53650;SDS011;39552;45.776;15.892;2022-07-29T12:16:51;7.55;;;3.72;;
53650;SDS011;39552;45.776;15.892;2022-07-29T12:19:18;5.15;;;3.42;;
53650;SDS011;39552;45.776;15.892;2022-07-29T12:21:45;9.48;;;3.60;;
53650;SDS011;39552;45.776;15.892;2022-07-29T12:24:22;3.65;;;3.00;;
53650;SDS011;39552;45.776;15.892;2022-07-29T12:26:53;6.28;;;3.42;;
53650;SDS011;39552;45.776;15.892;2022-07-29T12:29:21;6.78;;;3.38;;
53650;SDS011;39552;45.776;15.892;2022-07-29T12:32:00;5.25;;;3.05;;
53650;SDS011;39552;45.776;15.892;2022-07-29T12:34:29;4.75;;;3.33;;
53650;SDS011;39552;45.776;15.892;2022-07-29T12:36:56;7.53;;;3.00;;
53650;SDS011;39552;45.776;15.892;2022-07-29T12:39:24;9.70;;;3.20;;
53650;SDS011;39552;45.776;15.892;2022-07-29T12:41:51;7.18;;;3.20;;
53650;SDS011;39552;45.776;15.892;2022-07-29T12:44:42;3.80;;;3.40;;
53650;SDS011;39552;45.776;15.892;2022-07-29T12:47:10;5.53;;;3.50;;
53650;SDS011;39552;45.776;15.892;2022-07-29T12:49:36;5.47;;;3.25;;
53650;SDS011;39552;45.776;15.892;2022-07-29T12:54:56;5.38;;;3.03;;
53650;SDS011;39552;45.776;15.892;2022-07-29T12:57:23;3.67;;;3.38;;
53650;SDS011;39552;45.776;15.892;2022-07-29T13:00:03;7.07;;;3.10;;
53650;SDS011;39552;45.776;15.892;2022-07-29T13:02:32;8.20;;;3.33;;
53650;SDS011;39552;45.776;15.892;2022-07-29T13:05:02;10.00;;;3.35;;
53650;SDS011;39552;45.776;15.892;2022-07-29T13:07:30;6.25;;;3.15;;
53650;SDS011;39552;45.776;15.892;2022-07-29T13:10:20;4.63;;;3.47;;
53650;SDS011;39552;45.776;15.892;2022-07-29T13:13:02;7.50;;;2.92;;
53650;SDS011;39552;45.776;15.892;2022-07-29T13:15:30;6.72;;;3.22;;
53650;SDS011;39552;45.776;15.892;2022-07-29T13:17:57;6.65;;;3.20;;
53650;SDS011;39552;45.776;15.892;2022-07-29T13:20:24;8.15;;;2.95;;
53650;SDS011;39552;45.776;15.892;2022-07-29T13:22:52;11.77;;;3.60;;
53650;SDS011;39552;45.776;15.892;2022-07-29T13:25:24;4.45;;;3.15;;
53650;SDS011;39552;45.776;15.892;2022-07-29T13:27:52;5.80;;;3.08;;
53650;SDS011;39552;45.776;15.892;2022-07-29T13:30:19;3.33;;;3.03;;
53650;SDS011;39552;45.776;15.892;2022-07-29T13:32:47;3.10;;;2.80;;
53650;SDS011;39552;45.776;15.892;2022-07-29T13:35:13;3.40;;;3.10;;
53650;SDS011;39552;45.776;15.892;2022-07-29T13:37:40;6.72;;;3.17;;
53650;SDS011;39552;45.776;15.892;2022-07-29T13:40:07;8.02;;;3.08;;
53650;SDS011;39552;45.776;15.892;2022-07-29T13:42:37;10.55;;;3.88;;
53650;SDS011;39552;45.776;15.892;2022-07-29T13:45:04;7.68;;;3.28;;
53650;SDS011;39552;45.776;15.892;2022-07-29T13:47:32;4.65;;;3.25;;
53650;SDS011;39552;45.776;15.892;2022-07-29T13:49:59;3.30;;;3.00;;
53650;SDS011;39552;45.776;15.892;2022-07-29T13:52:27;5.63;;;3.42;;
53650;SDS011;39552;45.776;15.892;2022-07-29T13:54:54;10.00;;;3.27;;
53650;SDS011;39552;45.776;15.892;2022-07-29T13:57:20;7.18;;;3.05;;
53650;SDS011;39552;45.776;15.892;2022-07-29T13:59:48;16.00;;;3.13;;
53650;SDS011;39552;45.776;15.892;2022-07-29T14:02:19;6.00;;;3.40;;
53650;SDS011;39552;45.776;15.892;2022-07-29T14:04:51;6.32;;;3.10;;
53650;SDS011;39552;45.776;15.892;2022-07-29T14:07:18;9.35;;;3.40;;
53650;SDS011;39552;45.776;15.892;2022-07-29T14:09:44;5.28;;;3.20;;
53650;SDS011;39552;45.776;15.892;2022-07-29T14:12:11;4.63;;;3.10;;
53650;SDS011;39552;45.776;15.892;2022-07-29T14:14:38;15.52;;;3.00;;
53650;SDS011;39552;45.776;15.892;2022-07-29T14:17:06;7.65;;;2.97;;
53650;SDS011;39552;45.776;15.892;2022-07-29T14:19:33;7.10;;;3.28;;
53650;SDS011;39552;45.776;15.892;2022-07-29T14:22:01;14.70;;;3.35;;
53650;SDS011;39552;45.776;15.892;2022-07-29T14:24:28;8.48;;;2.85;;
53650;SDS011;39552;45.776;15.892;2022-07-29T14:26:55;3.85;;;2.97;;
53650;SDS011;39552;45.776;15.892;2022-07-29T14:29:21;3.45;;;2.88;;
53650;SDS011;39552;45.776;15.892;2022-07-29T14:32:02;5.10;;;2.88;;
53650;SDS011;39552;45.776;15.892;2022-07-29T14:34:31;3.67;;;2.80;;
53650;SDS011;39552;45.776;15.892;2022-07-29T14:36:57;6.97;;;3.00;;
53650;SDS011;39552;45.776;15.892;2022-07-29T14:39:24;4.32;;;2.67;;
53650;SDS011;39552;45.776;15.892;2022-07-29T14:41:57;10.27;;;2.80;;
53650;SDS011;39552;45.776;15.892;2022-07-29T14:44:25;2.93;;;2.63;;
53650;SDS011;39552;45.776;15.892;2022-07-29T14:46:51;4.18;;;3.00;;
53650;SDS011;39552;45.776;15.892;2022-07-29T14:49:18;8.13;;;3.15;;
53650;SDS011;39552;45.776;15.892;2022-07-29T14:51:46;6.43;;;3.00;;
53650;SDS011;39552;45.776;15.892;2022-07-29T14:54:13;4.88;;;3.13;;
53650;SDS011;39552;45.776;15.892;2022-07-29T14:56:39;11.50;;;2.95;;
53650;SDS011;39552;45.776;15.892;2022-07-29T14:59:12;3.20;;;2.90;;
53650;SDS011;39552;45.776;15.892;2022-07-29T15:01:41;5.97;;;2.67;;
53650;SDS011;39552;45.776;15.892;2022-07-29T15:04:16;9.75;;;3.10;;
53650;SDS011;39552;45.776;15.892;2022-07-29T15:06:43;6.50;;;2.88;;
53650;SDS011;39552;45.776;15.892;2022-07-29T15:09:11;5.43;;;2.80;;
53650;SDS011;39552;45.776;15.892;2022-07-29T15:11:37;6.10;;;3.10;;
53650;SDS011;39552;45.776;15.892;2022-07-29T15:14:04;6.95;;;2.90;;
53650;SDS011;39552;45.776;15.892;2022-07-29T15:16:31;3.50;;;2.90;;
53650;SDS011;39552;45.776;15.892;2022-07-29T15:18:58;6.10;;;2.80;;
53650;SDS011;39552;45.776;15.892;2022-07-29T15:21:26;6.53;;;3.00;;
53650;SDS011;39552;45.776;15.892;2022-07-29T15:23:53;6.75;;;3.20;;
53650;SDS011;39552;45.776;15.892;2022-07-29T15:26:21;3.60;;;3.03;;